SS-0020 weather

Ibba Airstrip
Ibba, Western Equatoria State, South Sudan

Public forecast

Using degrees Celsius for public forecast. Weather courtesy of forecast.io.

Closest aviation weather report (METAR) to Ibba Airstrip

Report is more than 6 hours old.

Closest report is Juba International Airport, 146.3 nm (270.9 km) E. Retrieved 2019/10/21 10:00 UTC (4 months ago):

HSSJ 211000Z 09003KT 9999 SCT040 31/17 Q1011

Closest aviation forecast (TAF) to Ibba Airstrip

Forecast is more than 12 hours old.

Closest forecast is Yambio Airport, 45.9 nm (85.0 km) WSW. Retrieved 2015/03/08 06:00 UTC (5 years ago):

TAF HSYA 080400Z 0806/0912 18005G15KT 9999 SCT040 BKN140 TEMPO 0812/0818 21008G18KT 6000 TSRA FEW045CB TEMPO 0818/0824 VRB03KT 9999 SCT040 BKN140